Accedi per prenotare

Caricamento...

Situazione Metar e Taf aeroporto Pisa - Effemeridi Aeroporto Lucca

[Source: ADDS]
METAR
LIRP 240215Z 10003KT 9999 FEW025 16/16 Q1008 NOSIG =
LIRP 232300Z 2400/2424 11005KT CAVOK TEMPO 2403/2406 9999 BKN010 BECMG 2411/2413 25010KT BECMG 2417/2419 VRB03KT
TAF
LIRP 232300Z 2400/2424 11005KT CAVOK TEMPO 2403/2406 9999 BKN010 BECMG 2411/2413 25010KT BECMG 2417/2419 VRB03KT =
SR / SS: 03:48 / 18:45 UTC (Effemeridi LIQL 2022-05-24)